Time;durP1;ratioP1;P1;durP2;ratioP2;P2;SDS_P1;SDS_P2;PMS_P1;PMS_P2;Temp;Humidity;BMP_temperature;BMP_pressure;BME280_temperature;BME280_humidity;BME280_pressure;Samples;Min_cycle;Max_cycle;Signal;HPM_P1;HPM_P2
2022/03/04 00:01:59;;;;;;;17.17;9.77;;;;;;;;;;5012875;28;20030;-70
2022/03/04 00:04:24;;;;;;;17.02;9.38;;;;;;;;;;5012957;28;20478;-70
2022/03/04 00:06:50;;;;;;;17.38;9.35;;;;;;;;;;5013010;28;20105;-70
2022/03/04 00:09:15;;;;;;;15.98;8.77;;;;;;;;;;5012553;28;20030;-72
2022/03/04 00:11:41;;;;;;;16.60;9.30;;;;;;;;;;5011764;28;20064;-70
2022/03/04 00:14:08;;;;;;;16.83;8.73;;;;;;;;;;5012793;28;20034;-70
2022/03/04 00:16:34;;;;;;;14.93;9.77;;;;;;;;;;5012934;28;20468;-70
2022/03/04 00:19:09;;;;;;;16.73;9.75;;;;;;;;;;5012576;28;20112;-70
2022/03/04 00:21:37;;;;;;;19.08;9.63;;;;;;;;;;5012604;28;20109;-70
2022/03/04 00:24:04;;;;;;;14.25;8.73;;;;;;;;;;5013609;28;20072;-70
2022/03/04 00:26:29;;;;;;;17.17;8.38;;;;;;;;;;5012015;28;20045;-70
2022/03/04 00:28:55;;;;;;;16.60;8.02;;;;;;;;;;5012395;28;20060;-70
2022/03/04 00:31:21;;;;;;;16.55;8.93;;;;;;;;;;5012780;28;20455;-70
2022/03/04 00:33:47;;;;;;;19.73;8.30;;;;;;;;;;5012311;28;20475;-70
2022/03/04 00:36:12;;;;;;;16.10;9.05;;;;;;;;;;5012095;28;20041;-71
2022/03/04 00:38:38;;;;;;;16.08;8.50;;;;;;;;;;5012074;28;20100;-71
2022/03/04 00:41:03;;;;;;;19.17;8.90;;;;;;;;;;5026835;28;20060;-71
2022/03/04 00:43:29;;;;;;;17.33;9.32;;;;;;;;;;5030853;28;20033;-71
2022/03/04 00:45:54;;;;;;;20.48;9.98;;;;;;;;;;5032095;28;20025;-70
2022/03/04 00:48:19;;;;;;;21.70;10.32;;;;;;;;;;5031693;28;20032;-70
2022/03/04 00:50:45;;;;;;;19.23;10.13;;;;;;;;;;5016230;28;20042;-71
2022/03/04 00:53:10;;;;;;;18.42;9.88;;;;;;;;;;5011906;28;20060;-69
2022/03/04 00:55:37;;;;;;;19.92;10.07;;;;;;;;;;5012099;28;20038;-70
2022/03/04 00:58:05;;;;;;;20.38;9.10;;;;;;;;;;5031458;28;20098;-70
2022/03/04 01:00:31;;;;;;;18.38;9.10;;;;;;;;;;5031854;28;20021;-70
2022/03/04 01:02:56;;;;;;;15.13;8.48;;;;;;;;;;5031526;28;20033;-70
2022/03/04 01:05:21;;;;;;;16.52;8.85;;;;;;;;;;5031514;28;20033;-71
2022/03/04 01:07:47;;;;;;;14.30;8.50;;;;;;;;;;5019571;28;20037;-70
2022/03/04 01:10:12;;;;;;;19.20;8.68;;;;;;;;;;5011576;28;20034;-70
2022/03/04 01:12:37;;;;;;;12.70;8.10;;;;;;;;;;5012076;28;20105;-72
2022/03/04 01:15:03;;;;;;;17.75;9.05;;;;;;;;;;5011689;28;20530;-71
2022/03/04 01:17:28;;;;;;;15.88;8.45;;;;;;;;;;5011703;28;20125;-70
2022/03/04 01:19:54;;;;;;;18.17;8.90;;;;;;;;;;5011353;28;20064;-70
2022/03/04 01:22:19;;;;;;;16.70;8.80;;;;;;;;;;5023131;28;20037;-70
2022/03/04 01:24:44;;;;;;;15.75;8.80;;;;;;;;;;5011114;28;20068;-71
2022/03/04 01:27:09;;;;;;;17.50;8.15;;;;;;;;;;5011319;28;20034;-70
2022/03/04 01:29:35;;;;;;;17.25;7.72;;;;;;;;;;5010921;28;20038;-70
2022/03/04 01:32:00;;;;;;;14.77;8.77;;;;;;;;;;5011475;28;20029;-71
2022/03/04 01:34:25;;;;;;;14.32;8.40;;;;;;;;;;5011254;28;20033;-70
2022/03/04 01:36:51;;;;;;;16.33;8.85;;;;;;;;;;5012141;28;20479;-70
2022/03/04 01:39:16;;;;;;;14.05;8.43;;;;;;;;;;5010943;28;20108;-71
2022/03/04 01:41:41;;;;;;;18.27;8.57;;;;;;;;;;5011093;28;20033;-71
2022/03/04 01:44:06;;;;;;;16.13;8.02;;;;;;;;;;5010837;28;20030;-72
2022/03/04 01:46:33;;;;;;;18.00;9.15;;;;;;;;;;5011290;28;20030;-71
2022/03/04 01:48:58;;;;;;;14.15;8.15;;;;;;;;;;5010709;28;20030;-70
2022/03/04 01:51:24;;;;;;;13.82;8.10;;;;;;;;;;5010604;28;20037;-70
2022/03/04 01:53:49;;;;;;;18.13;9.45;;;;;;;;;;5018397;28;20523;-72
2022/03/04 01:56:15;;;;;;;18.48;8.45;;;;;;;;;;5030641;28;20051;-72
2022/03/04 01:58:40;;;;;;;16.27;10.00;;;;;;;;;;5011664;28;20470;-70
2022/03/04 02:01:06;;;;;;;16.17;9.32;;;;;;;;;;5010907;28;20026;-70
2022/03/04 02:03:31;;;;;;;16.10;8.80;;;;;;;;;;5010994;28;20042;-71
2022/03/04 02:05:57;;;;;;;18.58;8.25;;;;;;;;;;5010893;28;20045;-70
2022/03/04 02:08:22;;;;;;;17.83;9.25;;;;;;;;;;5010659;28;20049;-70
2022/03/04 02:10:48;;;;;;;14.43;8.20;;;;;;;;;;5023997;28;20033;-71
2022/03/04 02:13:14;;;;;;;14.98;8.38;;;;;;;;;;5030366;28;20029;-70
2022/03/04 02:15:42;;;;;;;16.23;8.77;;;;;;;;;;5030304;28;20025;-71
2022/03/04 02:18:12;;;;;;;17.10;8.35;;;;;;;;;;5027030;28;20390;-71
2022/03/04 02:20:41;;;;;;;17.00;9.13;;;;;;;;;;5010539;28;20286;-70
2022/03/04 02:23:07;;;;;;;18.23;9.77;;;;;;;;;;5025451;28;20452;-71
2022/03/04 02:25:32;;;;;;;18.10;9.05;;;;;;;;;;5011393;28;20040;-71
2022/03/04 02:27:58;;;;;;;15.38;8.27;;;;;;;;;;5010433;28;20034;-70
2022/03/04 02:30:23;;;;;;;14.52;8.38;;;;;;;;;;5010520;28;20657;-70
2022/03/04 02:32:49;;;;;;;17.38;9.13;;;;;;;;;;5010328;28;20030;-71
2022/03/04 02:35:14;;;;;;;17.67;8.70;;;;;;;;;;5010281;28;20033;-71
2022/03/04 02:37:39;;;;;;;15.00;8.00;;;;;;;;;;5010660;28;20018;-71
2022/03/04 02:40:05;;;;;;;16.25;8.60;;;;;;;;;;5009748;28;20257;-70
2022/03/04 02:42:31;;;;;;;17.67;8.32;;;;;;;;;;5011669;28;20124;-70
2022/03/04 02:44:56;;;;;;;17.67;8.75;;;;;;;;;;5012672;28;20152;-70
2022/03/04 02:47:21;;;;;;;15.63;8.65;;;;;;;;;;5017108;28;20113;-71
2022/03/04 02:49:47;;;;;;;13.10;8.32;;;;;;;;;;5009845;28;20030;-72
2022/03/04 02:52:12;;;;;;;15.75;8.43;;;;;;;;;;5008800;28;20018;-70
2022/03/04 02:54:37;;;;;;;16.23;8.05;;;;;;;;;;5009601;28;20468;-71
2022/03/04 02:57:03;;;;;;;17.33;8.23;;;;;;;;;;5010230;28;20030;-70
2022/03/04 02:59:28;;;;;;;15.45;8.13;;;;;;;;;;5017431;28;20033;-71
2022/03/04 03:01:53;;;;;;;12.82;8.18;;;;;;;;;;5010194;28;20030;-71
2022/03/04 03:04:19;;;;;;;14.63;8.32;;;;;;;;;;5009741;28;20026;-70
2022/03/04 03:06:45;;;;;;;16.60;9.15;;;;;;;;;;5011135;28;20542;-71
2022/03/04 03:09:10;;;;;;;20.13;12.43;;;;;;;;;;5013903;28;20479;-70
2022/03/04 03:11:35;;;;;;;17.05;11.25;;;;;;;;;;5013843;28;20033;-70
2022/03/04 03:14:01;;;;;;;19.25;9.05;;;;;;;;;;5013458;28;20317;-70
2022/03/04 03:16:26;;;;;;;14.80;8.35;;;;;;;;;;5029389;28;20029;-71
2022/03/04 03:18:51;;;;;;;18.10;8.60;;;;;;;;;;5033266;28;20029;-71
2022/03/04 03:21:17;;;;;;;18.35;9.40;;;;;;;;;;5033393;28;20495;-70
2022/03/04 03:23:42;;;;;;;17.30;8.23;;;;;;;;;;5030087;28;20022;-71
2022/03/04 03:26:08;;;;;;;16.27;8.60;;;;;;;;;;5013698;28;20022;-70
2022/03/04 03:28:34;;;;;;;17.23;8.57;;;;;;;;;;5013354;28;20129;-70
2022/03/04 03:31:00;;;;;;;17.67;8.68;;;;;;;;;;5013583;28;20053;-71
2022/03/04 03:33:25;;;;;;;17.75;8.85;;;;;;;;;;5013501;28;20034;-72
2022/03/04 03:35:54;;;;;;;14.02;8.00;;;;;;;;;;5013403;28;20022;-71
2022/03/04 03:38:21;;;;;;;15.63;8.13;;;;;;;;;;5021923;28;20025;-70
2022/03/04 03:40:46;;;;;;;17.08;8.07;;;;;;;;;;5033403;28;20033;-70
2022/03/04 03:43:12;;;;;;;15.20;7.53;;;;;;;;;;5026400;28;20029;-70
2022/03/04 03:45:37;;;;;;;14.23;8.07;;;;;;;;;;5032967;28;20029;-70
2022/03/04 03:48:03;;;;;;;15.68;8.27;;;;;;;;;;5032955;28;20025;-70
2022/03/04 03:50:28;;;;;;;15.63;8.30;;;;;;;;;;5032924;28;20026;-70
2022/03/04 03:52:54;;;;;;;13.85;7.93;;;;;;;;;;5028769;28;20083;-71
2022/03/04 03:55:19;;;;;;;12.93;8.30;;;;;;;;;;5032623;28;20028;-72
2022/03/04 03:57:44;;;;;;;14.35;7.90;;;;;;;;;;5033029;28;20022;-70
2022/03/04 04:00:10;;;;;;;15.02;7.78;;;;;;;;;;5032935;28;20364;-69
2022/03/04 04:02:36;;;;;;;16.45;8.35;;;;;;;;;;5032707;28;20107;-70
2022/03/04 04:05:01;;;;;;;15.40;7.88;;;;;;;;;;5030273;28;20027;-70
2022/03/04 04:07:26;;;;;;;16.30;7.88;;;;;;;;;;5011523;28;20030;-69
2022/03/04 04:09:52;;;;;;;17.10;8.00;;;;;;;;;;5012534;28;20021;-73
2022/03/04 04:12:17;;;;;;;15.30;8.40;;;;;;;;;;5012612;28;20073;-69
2022/03/04 04:14:42;;;;;;;18.10;9.13;;;;;;;;;;5012668;28;20029;-70
2022/03/04 04:17:08;;;;;;;18.48;8.95;;;;;;;;;;5011633;28;20501;-71
2022/03/04 04:19:33;;;;;;;16.73;8.55;;;;;;;;;;5012763;28;20037;-70
2022/03/04 04:21:59;;;;;;;17.67;8.52;;;;;;;;;;5022898;28;20104;-70
2022/03/04 04:24:24;;;;;;;17.95;8.65;;;;;;;;;;5032388;28;20029;-70
2022/03/04 04:26:50;;;;;;;16.58;9.10;;;;;;;;;;5032356;28;20475;-69
2022/03/04 04:29:15;;;;;;;16.17;9.00;;;;;;;;;;5024874;28;20029;-71
2022/03/04 04:31:41;;;;;;;17.95;8.77;;;;;;;;;;5012468;28;20506;-70
2022/03/04 04:34:06;;;;;;;16.73;8.23;;;;;;;;;;5012641;28;20277;-70
2022/03/04 04:36:32;;;;;;;13.77;8.30;;;;;;;;;;5026068;28;20025;-69
2022/03/04 04:38:57;;;;;;;16.05;8.85;;;;;;;;;;5022979;28;20044;-70
2022/03/04 04:41:23;;;;;;;19.77;9.15;;;;;;;;;;5012170;28;20052;-72
2022/03/04 04:43:48;;;;;;;29.77;11.73;;;;;;;;;;5011827;28;20522;-70
2022/03/04 04:46:14;;;;;;;19.98;9.05;;;;;;;;;;5012260;28;20021;-70
2022/03/04 04:48:39;;;;;;;22.45;10.30;;;;;;;;;;5012036;28;20383;-71
2022/03/04 04:51:05;;;;;;;29.38;12.27;;;;;;;;;;5012164;28;20030;-70
2022/03/04 04:53:31;;;;;;;30.38;12.93;;;;;;;;;;5012390;28;20232;-70
2022/03/04 04:55:57;;;;;;;18.52;9.90;;;;;;;;;;5012169;28;20146;-69
2022/03/04 04:58:22;;;;;;;21.98;10.20;;;;;;;;;;5012262;28;20273;-71
2022/03/04 05:00:53;;;;;;;19.65;9.70;;;;;;;;;;5012456;28;20056;-70
2022/03/04 05:03:21;;;;;;;22.80;9.32;;;;;;;;;;5011975;28;20033;-69
2022/03/04 05:05:47;;;;;;;19.45;9.27;;;;;;;;;;5011643;28;20144;-70
2022/03/04 05:08:12;;;;;;;19.63;8.25;;;;;;;;;;5021046;28;20570;-70
2022/03/04 05:10:38;;;;;;;17.40;9.13;;;;;;;;;;5031544;28;20026;-72
2022/03/04 05:13:03;;;;;;;18.08;8.55;;;;;;;;;;5031483;28;20113;-70
2022/03/04 05:15:28;;;;;;;17.15;8.45;;;;;;;;;;5031389;28;20041;-70
2022/03/04 05:17:54;;;;;;;21.88;10.55;;;;;;;;;;5031257;28;20065;-72
2022/03/04 05:20:20;;;;;;;18.55;9.68;;;;;;;;;;5031046;28;20029;-70
2022/03/04 05:22:45;;;;;;;17.85;9.20;;;;;;;;;;5031290;28;20025;-71
2022/03/04 05:25:12;;;;;;;18.95;10.27;;;;;;;;;;5029500;28;20040;-70
2022/03/04 05:27:38;;;;;;;21.65;9.93;;;;;;;;;;5031284;28;20025;-69
2022/03/04 05:30:04;;;;;;;15.32;9.90;;;;;;;;;;5030547;28;20368;-71
2022/03/04 05:32:29;;;;;;;16.75;8.85;;;;;;;;;;5015357;28;20026;-71
2022/03/04 05:34:55;;;;;;;18.05;8.95;;;;;;;;;;5016651;28;20032;-71
2022/03/04 05:37:20;;;;;;;18.55;9.30;;;;;;;;;;5030929;28;20395;-70
2022/03/04 05:39:45;;;;;;;19.95;10.30;;;;;;;;;;5030701;28;20526;-70
2022/03/04 05:42:11;;;;;;;16.00;8.95;;;;;;;;;;5030781;28;20183;-71
2022/03/04 05:44:36;;;;;;;18.65;9.52;;;;;;;;;;5021436;28;20042;-70
2022/03/04 05:47:02;;;;;;;14.20;8.68;;;;;;;;;;5011429;28;20471;-70
2022/03/04 05:49:27;;;;;;;18.48;9.38;;;;;;;;;;5021965;28;20059;-70
2022/03/04 05:51:53;;;;;;;17.20;8.77;;;;;;;;;;5030874;28;20028;-69
2022/03/04 05:54:18;;;;;;;14.85;8.85;;;;;;;;;;5030687;28;20120;-69
2022/03/04 05:56:43;;;;;;;16.40;9.15;;;;;;;;;;5030619;28;20036;-70
2022/03/04 05:59:09;;;;;;;16.50;8.15;;;;;;;;;;5026132;28;20483;-69
2022/03/04 06:01:34;;;;;;;19.00;9.07;;;;;;;;;;5010051;28;20057;-70
2022/03/04 06:03:59;;;;;;;18.70;8.85;;;;;;;;;;5022486;28;20395;-71
2022/03/04 06:06:26;;;;;;;18.25;8.98;;;;;;;;;;5030405;28;20031;-69
2022/03/04 06:08:51;;;;;;;14.65;8.35;;;;;;;;;;5030274;28;20222;-70
2022/03/04 06:11:18;;;;;;;15.02;8.73;;;;;;;;;;5011536;28;20116;-69
2022/03/04 06:13:44;;;;;;;16.70;8.75;;;;;;;;;;5010551;28;20014;-72
2022/03/04 06:16:10;;;;;;;20.98;9.10;;;;;;;;;;5021295;28;20033;-70
2022/03/04 06:18:35;;;;;;;23.65;10.15;;;;;;;;;;5026555;28;20026;-70
2022/03/04 06:21:01;;;;;;;19.00;9.68;;;;;;;;;;5009952;28;20495;-70
2022/03/04 06:23:26;;;;;;;17.13;8.75;;;;;;;;;;5012583;28;20025;-70
2022/03/04 06:25:51;;;;;;;17.63;9.35;;;;;;;;;;5003098;28;20464;-70
2022/03/04 06:28:17;;;;;;;17.83;9.57;;;;;;;;;;5021811;28;20036;-71
2022/03/04 06:30:42;;;;;;;18.85;10.48;;;;;;;;;;5001727;28;20618;-70
2022/03/04 06:35:53;;;;;;;22.95;10.38;;;;;;;;;;5013935;28;20060;-70
2022/03/04 06:38:19;;;;;;;17.70;10.02;;;;;;;;;;5010035;28;20431;-70
2022/03/04 06:40:46;;;;;;;18.05;11.38;;;;;;;;;;5009600;28;20022;-70
2022/03/04 06:43:11;;;;;;;19.67;10.20;;;;;;;;;;4996445;28;20037;-70
2022/03/04 06:45:40;;;;;;;19.52;9.40;;;;;;;;;;5009998;28;20395;-70
2022/03/04 06:48:05;;;;;;;19.17;9.75;;;;;;;;;;5010081;28;20384;-70
2022/03/04 06:50:30;;;;;;;20.95;10.23;;;;;;;;;;5010228;28;20030;-70
2022/03/04 06:52:56;;;;;;;18.33;9.25;;;;;;;;;;5019328;28;20045;-70
2022/03/04 06:55:22;;;;;;;18.35;9.70;;;;;;;;;;5010038;28;20547;-70
2022/03/04 06:57:50;;;;;;;19.38;9.57;;;;;;;;;;5010097;28;20036;-70
2022/03/04 07:00:15;;;;;;;22.88;10.65;;;;;;;;;;5009587;28;20111;-70
2022/03/04 07:02:41;;;;;;;26.83;13.73;;;;;;;;;;5010049;28;20054;-71
2022/03/04 07:05:07;;;;;;;29.83;12.82;;;;;;;;;;5009010;28;20551;-71
2022/03/04 07:07:33;;;;;;;28.65;14.52;;;;;;;;;;5008180;28;20208;-71
2022/03/04 07:09:59;;;;;;;33.95;17.08;;;;;;;;;;5002239;28;20052;-71
2022/03/04 07:12:24;;;;;;;29.23;14.20;;;;;;;;;;5008617;28;20377;-71
2022/03/04 07:14:50;;;;;;;27.67;12.90;;;;;;;;;;5009712;28;20026;-70
2022/03/04 07:17:16;;;;;;;21.23;11.15;;;;;;;;;;5010024;28;20018;-70
2022/03/04 07:19:41;;;;;;;28.73;13.45;;;;;;;;;;5009720;28;20024;-71
2022/03/04 07:22:07;;;;;;;31.45;15.18;;;;;;;;;;5009923;28;20026;-71
2022/03/04 07:24:33;;;;;;;28.70;15.68;;;;;;;;;;5007704;28;20488;-71
2022/03/04 07:26:58;;;;;;;24.58;12.73;;;;;;;;;;5008786;28;20500;-71
2022/03/04 07:29:24;;;;;;;21.25;12.38;;;;;;;;;;5009038;28;20057;-71
2022/03/04 07:31:50;;;;;;;17.73;10.38;;;;;;;;;;5009931;28;20464;-71
2022/03/04 07:34:15;;;;;;;17.63;9.60;;;;;;;;;;5009569;28;20033;-73
2022/03/04 07:36:41;;;;;;;18.42;9.70;;;;;;;;;;5007173;28;20041;-73
2022/03/04 07:39:07;;;;;;;16.27;9.38;;;;;;;;;;5000482;28;20052;-71
2022/03/04 07:41:32;;;;;;;15.90;9.40;;;;;;;;;;5009449;28;20026;-71
2022/03/04 07:43:59;;;;;;;16.77;10.32;;;;;;;;;;5010026;28;20403;-71
2022/03/04 07:46:25;;;;;;;18.08;10.25;;;;;;;;;;5009936;28;20084;-72
2022/03/04 07:48:50;;;;;;;15.20;9.48;;;;;;;;;;5010322;28;20494;-72
2022/03/04 07:51:16;;;;;;;16.23;10.13;;;;;;;;;;5009987;28;20027;-72
2022/03/04 07:53:41;;;;;;;17.42;11.35;;;;;;;;;;5026589;28;20108;-71
2022/03/04 07:56:07;;;;;;;21.95;13.65;;;;;;;;;;5033300;28;20112;-72
2022/03/04 07:58:32;;;;;;;22.20;12.98;;;;;;;;;;5033028;28;20410;-72
2022/03/04 08:00:57;;;;;;;14.43;9.40;;;;;;;;;;5033073;28;20492;-71
2022/03/04 08:03:23;;;;;;;15.43;9.40;;;;;;;;;;5032752;28;20418;-71
2022/03/04 08:05:48;;;;;;;11.85;8.77;;;;;;;;;;5033013;28;20079;-71
2022/03/04 08:08:13;;;;;;;15.13;9.13;;;;;;;;;;5032576;28;20399;-71
2022/03/04 08:10:38;;;;;;;16.30;9.40;;;;;;;;;;5031528;28;20032;-71
2022/03/04 08:13:05;;;;;;;14.85;9.85;;;;;;;;;;5032677;28;20053;-72
2022/03/04 08:15:30;;;;;;;16.70;10.23;;;;;;;;;;5023822;28;20113;-72
2022/03/04 08:17:56;;;;;;;16.17;10.27;;;;;;;;;;5010525;28;20106;-72
2022/03/04 08:20:21;;;;;;;15.07;9.82;;;;;;;;;;5010979;28;20049;-71
2022/03/04 08:22:47;;;;;;;15.30;10.75;;;;;;;;;;5022588;28;20028;-72
2022/03/04 08:25:12;;;;;;;19.75;13.70;;;;;;;;;;5032106;28;20025;-72
2022/03/04 08:27:41;;;;;;;31.45;17.58;;;;;;;;;;5031688;28;20394;-72
2022/03/04 08:30:08;;;;;;;19.25;11.68;;;;;;;;;;5030222;28;20026;-72
2022/03/04 08:32:34;;;;;;;14.73;11.23;;;;;;;;;;5026764;28;20025;-72
2022/03/04 08:35:00;;;;;;;15.68;10.63;;;;;;;;;;5012128;28;20026;-72
2022/03/04 08:37:25;;;;;;;15.07;10.50;;;;;;;;;;5016311;28;20075;-72
2022/03/04 08:39:51;;;;;;;15.85;10.68;;;;;;;;;;5009605;28;21027;-72
2022/03/04 08:42:16;;;;;;;15.50;10.88;;;;;;;;;;5016465;28;20037;-72
2022/03/04 08:44:42;;;;;;;16.13;10.88;;;;;;;;;;5038141;23;20045;-71
2022/03/04 08:47:08;;;;;;;16.17;10.73;;;;;;;;;;5031378;28;20114;-69
2022/03/04 08:49:34;;;;;;;17.98;10.73;;;;;;;;;;5031134;28;20168;-70
2022/03/04 08:51:59;;;;;;;16.40;11.98;;;;;;;;;;5031137;28;20033;-69
2022/03/04 08:54:25;;;;;;;15.25;10.60;;;;;;;;;;5031597;28;20036;-70
2022/03/04 08:56:51;;;;;;;18.70;13.32;;;;;;;;;;5031373;28;20036;-70
2022/03/04 08:59:16;;;;;;;23.35;16.52;;;;;;;;;;5031176;28;20441;-69
2022/03/04 09:01:41;;;;;;;20.20;13.45;;;;;;;;;;5034172;28;20096;-71
2022/03/04 09:04:06;;;;;;;32.08;20.58;;;;;;;;;;5050488;28;20052;-71
2022/03/04 09:06:32;;;;;;;22.40;14.02;;;;;;;;;;5051527;28;20096;-71
2022/03/04 09:08:57;;;;;;;17.73;12.68;;;;;;;;;;5050707;28;20029;-70
2022/03/04 09:11:22;;;;;;;25.17;18.88;;;;;;;;;;5051333;28;20033;-70
2022/03/04 09:13:48;;;;;;;35.97;25.17;;;;;;;;;;5051062;28;20029;-70
2022/03/04 09:16:14;;;;;;;19.80;14.82;;;;;;;;;;5040328;28;20079;-71
2022/03/04 09:18:39;;;;;;;27.05;18.25;;;;;;;;;;5029278;28;20394;-71
2022/03/04 09:21:05;;;;;;;24.05;16.35;;;;;;;;;;5030776;28;20030;-71
2022/03/04 09:23:30;;;;;;;24.55;17.60;;;;;;;;;;5030917;28;20028;-70
2022/03/04 09:25:55;;;;;;;33.05;22.23;;;;;;;;;;5030610;28;20025;-71
2022/03/04 09:28:21;;;;;;;24.73;18.17;;;;;;;;;;5029098;28;20434;-70
2022/03/04 09:30:46;;;;;;;23.50;16.90;;;;;;;;;;5025415;28;20090;-72
2022/03/04 09:33:12;;;;;;;25.17;17.33;;;;;;;;;;5028632;28;20108;-71
2022/03/04 09:35:38;;;;;;;28.42;20.13;;;;;;;;;;5025375;28;20033;-72
2022/03/04 09:38:04;;;;;;;20.20;14.55;;;;;;;;;;5028512;28;20391;-71
2022/03/04 09:40:31;;;;;;;23.73;18.23;;;;;;;;;;5029298;28;20059;-72
2022/03/04 09:42:57;;;;;;;23.08;17.05;;;;;;;;;;5039996;28;20044;-72
2022/03/04 09:45:22;;;;;;;22.02;17.08;;;;;;;;;;5027195;28;20037;-70
2022/03/04 09:47:48;;;;;;;23.58;16.92;;;;;;;;;;5029929;28;20487;-71
2022/03/04 09:50:16;;;;;;;22.27;15.45;;;;;;;;;;5029901;28;20033;-71
2022/03/04 09:52:43;;;;;;;20.90;15.98;;;;;;;;;;5030317;28;20051;-71
2022/03/04 09:55:09;;;;;;;21.48;15.63;;;;;;;;;;5032237;28;20029;-74
2022/03/04 09:57:35;;;;;;;20.05;16.25;;;;;;;;;;5032679;28;20025;-75
2022/03/04 10:00:01;;;;;;;19.23;16.25;;;;;;;;;;5033259;28;20048;-74
2022/03/04 10:02:26;;;;;;;19.92;15.35;;;;;;;;;;5033442;28;20042;-75
2022/03/04 10:05:00;;;;;;;19.83;15.20;;;;;;;;;;5032253;28;20385;-75
2022/03/04 10:07:25;;;;;;;23.23;17.80;;;;;;;;;;5032766;28;20084;-74
2022/03/04 10:09:51;;;;;;;22.00;16.75;;;;;;;;;;5031996;28;20060;-75
2022/03/04 10:12:18;;;;;;;24.00;17.20;;;;;;;;;;5031750;28;20112;-75
2022/03/04 10:15:00;;;;;;;20.38;16.20;;;;;;;;;;5032370;28;20514;-75
2022/03/04 10:17:26;;;;;;;21.67;16.38;;;;;;;;;;5033050;28;20033;-75
2022/03/04 10:19:56;;;;;;;22.73;16.75;;;;;;;;;;5032522;28;20018;-75
2022/03/04 10:22:22;;;;;;;21.17;16.88;;;;;;;;;;5032079;28;20479;-73
2022/03/04 10:24:48;;;;;;;21.98;16.02;;;;;;;;;;5031507;28;20391;-76
2022/03/04 10:27:16;;;;;;;23.38;17.20;;;;;;;;;;5027025;28;20096;-73
2022/03/04 10:29:46;;;;;;;21.33;15.57;;;;;;;;;;5032102;28;20079;-77
2022/03/04 10:32:15;;;;;;;20.75;15.68;;;;;;;;;;5032330;28;20025;-75
2022/03/04 10:34:49;;;;;;;19.23;15.20;;;;;;;;;;5031230;28;20017;-74
2022/03/04 10:37:20;;;;;;;25.02;16.13;;;;;;;;;;5024519;28;20466;-74
2022/03/04 10:40:00;;;;;;;21.30;16.00;;;;;;;;;;5024708;28;20460;-74
2022/03/04 10:42:40;;;;;;;20.92;15.45;;;;;;;;;;5028482;28;20375;-71
2022/03/04 10:45:11;;;;;;;22.38;15.88;;;;;;;;;;5029665;28;20128;-70
2022/03/04 10:47:44;;;;;;;20.70;16.98;;;;;;;;;;5029820;28;20025;-69
2022/03/04 10:50:10;;;;;;;20.17;15.88;;;;;;;;;;5029269;28;20071;-73
2022/03/04 10:52:48;;;;;;;19.80;16.60;;;;;;;;;;5029395;28;20041;-72
2022/03/04 10:55:13;;;;;;;19.77;16.35;;;;;;;;;;5029383;28;20032;-74
2022/03/04 10:57:41;;;;;;;23.65;16.65;;;;;;;;;;5029458;28;20025;-72
2022/03/04 11:00:07;;;;;;;21.00;15.75;;;;;;;;;;5029220;28;20026;-70
2022/03/04 11:02:43;;;;;;;21.23;16.60;;;;;;;;;;5029657;28;20105;-72
2022/03/04 11:05:09;;;;;;;21.63;16.65;;;;;;;;;;5029505;28;20025;-71
2022/03/04 11:07:37;;;;;;;19.67;15.82;;;;;;;;;;5029224;28;20036;-71
2022/03/04 11:10:03;;;;;;;21.98;16.20;;;;;;;;;;5029157;28;20026;-70
2022/03/04 11:12:29;;;;;;;21.67;16.73;;;;;;;;;;5029563;28;20387;-71
2022/03/04 11:14:55;;;;;;;21.80;15.40;;;;;;;;;;5029553;28;20040;-71
2022/03/04 11:17:21;;;;;;;26.10;15.85;;;;;;;;;;5029486;28;20021;-70
2022/03/04 11:19:48;;;;;;;22.60;15.85;;;;;;;;;;5029356;28;20139;-71
2022/03/04 11:22:14;;;;;;;20.60;15.45;;;;;;;;;;5029437;28;20033;-72
2022/03/04 11:24:40;;;;;;;22.70;16.30;;;;;;;;;;5028198;28;20030;-71
2022/03/04 11:27:09;;;;;;;20.65;15.32;;;;;;;;;;5029153;28;20407;-72
2022/03/04 11:29:36;;;;;;;22.77;16.10;;;;;;;;;;5032871;28;20044;-73
2022/03/04 11:32:04;;;;;;;19.05;14.25;;;;;;;;;;5033197;28;20030;-71
2022/03/04 11:34:41;;;;;;;20.58;14.50;;;;;;;;;;5032802;28;20099;-70
2022/03/04 11:37:16;;;;;;;19.52;15.07;;;;;;;;;;5033092;28;20033;-72
2022/03/04 11:40:01;;;;;;;22.13;15.90;;;;;;;;;;5030720;28;20036;-70
2022/03/04 11:42:35;;;;;;;21.67;15.05;;;;;;;;;;5013509;28;20427;-73
2022/03/04 11:45:02;;;;;;;23.85;15.95;;;;;;;;;;5013119;28;20038;-71
2022/03/04 11:47:29;;;;;;;22.35;16.10;;;;;;;;;;5016274;28;20034;-71
2022/03/04 11:49:55;;;;;;;20.75;15.40;;;;;;;;;;5032445;28;20112;-71
2022/03/04 11:52:25;;;;;;;25.00;15.48;;;;;;;;;;5031560;28;20108;-70
2022/03/04 11:54:51;;;;;;;26.20;15.80;;;;;;;;;;5031857;28;20390;-70
2022/03/04 11:57:33;;;;;;;23.02;14.20;;;;;;;;;;5032510;28;20025;-73
2022/03/04 12:00:09;;;;;;;19.48;14.02;;;;;;;;;;5032168;28;20029;-71
2022/03/04 12:02:37;;;;;;;22.70;14.75;;;;;;;;;;5032596;28;20032;-72
2022/03/04 12:05:15;;;;;;;22.23;14.73;;;;;;;;;;5027328;28;20037;-70
2022/03/04 12:07:42;;;;;;;23.50;16.17;;;;;;;;;;5032062;28;20035;-70
2022/03/04 12:10:09;;;;;;;20.25;13.80;;;;;;;;;;5031543;28;20574;-72
2022/03/04 12:12:35;;;;;;;21.23;15.23;;;;;;;;;;5032426;28;20663;-71
2022/03/04 12:15:18;;;;;;;23.30;14.32;;;;;;;;;;5031031;28;20075;-70
2022/03/04 12:17:59;;;;;;;22.77;15.07;;;;;;;;;;5024438;28;20030;-72
2022/03/04 12:20:51;;;;;;;20.92;14.43;;;;;;;;;;5012763;28;20053;-71
2022/03/04 12:23:18;;;;;;;23.67;15.38;;;;;;;;;;5007282;28;20038;-72
2022/03/04 12:28:26;;;;;;;23.88;14.20;;;;;;;;;;5032516;28;20037;-71
2022/03/04 12:31:01;;;;;;;21.90;14.20;;;;;;;;;;5031197;28;20032;-70
2022/03/04 12:33:43;;;;;;;24.45;14.68;;;;;;;;;;5033212;28;20028;-70
2022/03/04 12:36:12;;;;;;;26.13;16.17;;;;;;;;;;5032122;28;20044;-69
2022/03/04 12:38:45;;;;;;;22.80;15.50;;;;;;;;;;5031509;28;20041;-71
2022/03/04 12:41:16;;;;;;;24.38;14.80;;;;;;;;;;5031600;28;20033;-71
2022/03/04 12:43:46;;;;;;;26.75;16.30;;;;;;;;;;5032312;28;20022;-70
2022/03/04 12:46:20;;;;;;;22.48;14.30;;;;;;;;;;5031180;28;20128;-71
2022/03/04 12:48:47;;;;;;;28.65;15.02;;;;;;;;;;5031918;28;20096;-70
2022/03/04 12:51:35;;;;;;;26.08;16.40;;;;;;;;;;5031443;28;20092;-70
2022/03/04 12:54:07;;;;;;;19.75;13.18;;;;;;;;;;5032113;28;20180;-71
2022/03/04 12:56:32;;;;;;;21.23;13.38;;;;;;;;;;5031301;28;20368;-70
2022/03/04 12:59:01;;;;;;;21.17;13.57;;;;;;;;;;5031427;28;20059;-70
2022/03/04 13:01:27;;;;;;;22.45;14.15;;;;;;;;;;5031873;28;20021;-70
2022/03/04 13:04:01;;;;;;;21.33;13.68;;;;;;;;;;5031759;28;20395;-70
2022/03/04 13:06:28;;;;;;;22.08;13.60;;;;;;;;;;5031932;28;20376;-70
2022/03/04 13:08:58;;;;;;;22.02;12.82;;;;;;;;;;5030865;28;20057;-70
2022/03/04 13:11:26;;;;;;;22.00;13.68;;;;;;;;;;5031523;28;20056;-70
2022/03/04 13:13:57;;;;;;;21.15;12.45;;;;;;;;;;5030959;28;20033;-70
2022/03/04 13:16:27;;;;;;;20.77;12.65;;;;;;;;;;5030760;28;20036;-71
2022/03/04 13:18:53;;;;;;;22.05;12.90;;;;;;;;;;5030814;28;20037;-70
2022/03/04 13:21:32;;;;;;;20.48;12.85;;;;;;;;;;5030844;28;20021;-71
2022/03/04 13:23:57;;;;;;;20.50;12.38;;;;;;;;;;5030852;28;20026;-68
2022/03/04 13:26:23;;;;;;;20.15;12.45;;;;;;;;;;5030936;28;20040;-70
2022/03/04 13:28:51;;;;;;;20.33;12.43;;;;;;;;;;5030566;28;20037;-70
2022/03/04 13:31:29;;;;;;;18.02;11.50;;;;;;;;;;5030970;28;20025;-70
2022/03/04 13:33:59;;;;;;;21.55;13.13;;;;;;;;;;5030907;28;20037;-70
2022/03/04 13:36:38;;;;;;;20.85;12.75;;;;;;;;;;5027571;28;20021;-70
2022/03/04 13:39:28;;;;;;;20.02;12.55;;;;;;;;;;5029809;28;20029;-69
2022/03/04 13:42:12;;;;;;;20.13;12.90;;;;;;;;;;5027033;28;20559;-69
2022/03/04 13:44:51;;;;;;;19.63;12.27;;;;;;;;;;5030092;28;20037;-70
2022/03/04 13:47:27;;;;;;;20.35;12.55;;;;;;;;;;5030060;28;20089;-70
2022/03/04 13:49:52;;;;;;;22.02;13.00;;;;;;;;;;5021661;28;20037;-70
2022/03/04 13:52:17;;;;;;;18.70;11.82;;;;;;;;;;5030362;28;20026;-71
2022/03/04 13:54:50;;;;;;;17.70;10.70;;;;;;;;;;5030435;28;20027;-71
2022/03/04 13:57:36;;;;;;;18.17;11.40;;;;;;;;;;5022644;28;20421;-71
2022/03/04 14:00:10;;;;;;;18.65;11.18;;;;;;;;;;5020352;28;20503;-71
2022/03/04 14:02:45;;;;;;;19.17;11.38;;;;;;;;;;5019461;28;20037;-70
2022/03/04 14:05:13;;;;;;;16.55;11.07;;;;;;;;;;5029020;28;20021;-71
2022/03/04 14:07:46;;;;;;;22.20;12.73;;;;;;;;;;5030300;28;20067;-71
2022/03/04 14:10:16;;;;;;;18.95;11.85;;;;;;;;;;5029890;28;20025;-70
2022/03/04 14:12:43;;;;;;;20.30;12.13;;;;;;;;;;5030204;28;20029;-71
2022/03/04 14:15:10;;;;;;;18.30;10.70;;;;;;;;;;5028058;28;20018;-69
2022/03/04 14:17:58;;;;;;;18.98;11.80;;;;;;;;;;5025063;28;20090;-71
2022/03/04 14:20:25;;;;;;;18.58;11.10;;;;;;;;;;5027670;28;20135;-70
2022/03/04 14:22:50;;;;;;;16.98;9.98;;;;;;;;;;5025182;28;20022;-71
2022/03/04 14:25:16;;;;;;;18.90;11.40;;;;;;;;;;5028299;28;20117;-71
2022/03/04 14:27:44;;;;;;;16.25;9.95;;;;;;;;;;5029090;28;20109;-72
2022/03/04 14:30:11;;;;;;;15.35;9.88;;;;;;;;;;5028972;28;20090;-69